Main page


Airports :

Tegucigalpa, Honduras

Toncontín International Airport

latitude: 14-03N, longitude: 087-13W, elevation: 994 m

Current weather observation

The report was made 49 minutes ago, at 17:00 UTC
Wind 2 kt from variable directions
Temperature 29°C
Humidity 35%
Pressure 1016 hPa
Visibility: 7000 m
Few clouds at a height of 2800 ft
Broken clouds at a height of 25000 ft

METAR: MHTG 201700Z VRB02KT 7000 FEW028 BKN250 29/12 Q1016 A3000

Time: 11:49 (17:49 UTC)


The report was made 1 hour and 24 minutes ago, at 16:25 UTC
Forecast valid from 20 at 18 UTC to 21 at 18 UTC
Wind 10 kt from the East
Visibility 10 km or more
Few clouds at a height of 3000 ft
from 21 at 01 UTC to 21 at 03 UTC
Wind 4 kt from the South/Southeast

TAF: MHTG 201625Z 2018/2118 09010KT 9999 FEW030 TX32/2021Z TN15/2112Z BECMG 2101/2103 15004KT

Weather observations and forecasts of more than 4000 airports (METAR and TAF reports).

The available stations are represented by yellow and red dots on the map.

Hover mouse over dot to see the name of the station.

Then click to see weather observations and forecasts.

To change the map : click on the green buttons with a black cross to zoom in, on the green button with a dash to zoom out, or on the green arrows for adjacent maps.